sensor_id;sensor_type;location;lat;lon;timestamp;temperature;humidity
73509;SHT30;72120;54.964;73.444;2023-11-21T00:01:37;-9.36;77.99
73509;SHT30;72120;54.964;73.444;2023-11-21T00:04:03;-9.18;78.66
73509;SHT30;72120;54.964;73.444;2023-11-21T00:06:29;-9.38;77.45
73509;SHT30;72120;54.964;73.444;2023-11-21T00:08:56;-9.44;78.12
73509;SHT30;72120;54.964;73.444;2023-11-21T00:11:22;-9.66;77.84
73509;SHT30;72120;54.964;73.444;2023-11-21T00:13:48;-9.69;78.62
73509;SHT30;72120;54.964;73.444;2023-11-21T00:16:13;-9.66;78.73
73509;SHT30;72120;54.964;73.444;2023-11-21T00:18:39;-9.60;78.94
73509;SHT30;72120;54.964;73.444;2023-11-21T00:21:06;-9.54;78.65
73509;SHT30;72120;54.964;73.444;2023-11-21T00:23:32;-9.49;78.30
73509;SHT30;72120;54.964;73.444;2023-11-21T00:25:58;-9.64;77.64
73509;SHT30;72120;54.964;73.444;2023-11-21T00:28:24;-9.54;78.01
73509;SHT30;72120;54.964;73.444;2023-11-21T00:30:52;-9.59;77.39
73509;SHT30;72120;54.964;73.444;2023-11-21T00:33:19;-9.69;77.22
73509;SHT30;72120;54.964;73.444;2023-11-21T00:35:46;-9.64;77.59
73509;SHT30;72120;54.964;73.444;2023-11-21T00:38:13;-9.57;77.49
73509;SHT30;72120;54.964;73.444;2023-11-21T00:40:39;-9.57;77.35
73509;SHT30;72120;54.964;73.444;2023-11-21T00:43:05;-9.61;77.44
73509;SHT30;72120;54.964;73.444;2023-11-21T00:45:31;-9.74;77.05
73509;SHT30;72120;54.964;73.444;2023-11-21T00:47:57;-9.69;77.07
73509;SHT30;72120;54.964;73.444;2023-11-21T00:50:24;-9.84;76.66
73509;SHT30;72120;54.964;73.444;2023-11-21T00:52:49;-9.80;77.16
73509;SHT30;72120;54.964;73.444;2023-11-21T00:55:17;-9.70;77.51
73509;SHT30;72120;54.964;73.444;2023-11-21T00:57:47;-9.70;77.31
73509;SHT30;72120;54.964;73.444;2023-11-21T01:00:13;-9.61;77.38
73509;SHT30;72120;54.964;73.444;2023-11-21T01:02:51;-9.81;76.29
73509;SHT30;72120;54.964;73.444;2023-11-21T01:05:17;-9.81;76.86
73509;SHT30;72120;54.964;73.444;2023-11-21T01:07:43;-9.93;76.26
73509;SHT30;72120;54.964;73.444;2023-11-21T01:10:10;-9.75;77.41
73509;SHT30;72120;54.964;73.444;2023-11-21T01:12:37;-9.71;77.31
73509;SHT30;72120;54.964;73.444;2023-11-21T01:15:03;-9.73;76.64
73509;SHT30;72120;54.964;73.444;2023-11-21T01:17:33;-9.75;76.73
73509;SHT30;72120;54.964;73.444;2023-11-21T01:20:00;-9.75;76.85
73509;SHT30;72120;54.964;73.444;2023-11-21T01:22:27;-9.83;76.63
73509;SHT30;72120;54.964;73.444;2023-11-21T01:24:54;-9.91;76.79
73509;SHT30;72120;54.964;73.444;2023-11-21T01:27:20;-10.08;76.31
73509;SHT30;72120;54.964;73.444;2023-11-21T01:29:46;-10.04;77.36
73509;SHT30;72120;54.964;73.444;2023-11-21T01:32:12;-10.08;77.40
73509;SHT30;72120;54.964;73.444;2023-11-21T01:34:38;-10.10;77.51
73509;SHT30;72120;54.964;73.444;2023-11-21T01:37:05;-9.89;78.30
73509;SHT30;72120;54.964;73.444;2023-11-21T01:39:31;-10.04;77.14
73509;SHT30;72120;54.964;73.444;2023-11-21T01:41:57;-10.13;76.73
73509;SHT30;72120;54.964;73.444;2023-11-21T01:44:26;-10.22;77.21
73509;SHT30;72120;54.964;73.444;2023-11-21T01:46:52;-10.18;77.99
73509;SHT30;72120;54.964;73.444;2023-11-21T01:49:19;-10.14;77.96
73509;SHT30;72120;54.964;73.444;2023-11-21T01:51:47;-9.95;78.49
73509;SHT30;72120;54.964;73.444;2023-11-21T01:54:15;-10.01;77.74
73509;SHT30;72120;54.964;73.444;2023-11-21T01:56:43;-10.13;77.03
73509;SHT30;72120;54.964;73.444;2023-11-21T01:59:11;-10.20;77.44
73509;SHT30;72120;54.964;73.444;2023-11-21T02:01:41;-10.38;77.49
73509;SHT30;72120;54.964;73.444;2023-11-21T02:04:07;-10.36;78.19
73509;SHT30;72120;54.964;73.444;2023-11-21T02:06:35;-10.31;78.68
73509;SHT30;72120;54.964;73.444;2023-11-21T02:09:01;-10.28;78.93
73509;SHT30;72120;54.964;73.444;2023-11-21T02:11:27;-10.36;78.26
73509;SHT30;72120;54.964;73.444;2023-11-21T02:13:56;-10.26;78.41
73509;SHT30;72120;54.964;73.444;2023-11-21T02:16:25;-10.38;77.98
73509;SHT30;72120;54.964;73.444;2023-11-21T02:18:52;-10.46;77.58
73509;SHT30;72120;54.964;73.444;2023-11-21T02:21:18;-10.46;77.85
73509;SHT30;72120;54.964;73.444;2023-11-21T02:23:48;-10.44;78.10
73509;SHT30;72120;54.964;73.444;2023-11-21T02:26:14;-10.42;77.74
73509;SHT30;72120;54.964;73.444;2023-11-21T02:28:40;-10.41;77.77
73509;SHT30;72120;54.964;73.444;2023-11-21T02:31:06;-10.58;77.40
73509;SHT30;72120;54.964;73.444;2023-11-21T02:33:33;-10.56;77.80
73509;SHT30;72120;54.964;73.444;2023-11-21T02:36:00;-10.52;78.18
73509;SHT30;72120;54.964;73.444;2023-11-21T02:38:26;-10.44;78.68
73509;SHT30;72120;54.964;73.444;2023-11-21T02:40:52;-10.56;77.93
73509;SHT30;72120;54.964;73.444;2023-11-21T02:43:19;-10.60;77.63
73509;SHT30;72120;54.964;73.444;2023-11-21T02:45:45;-10.45;78.71
73509;SHT30;72120;54.964;73.444;2023-11-21T02:48:12;-10.34;78.68
73509;SHT30;72120;54.964;73.444;2023-11-21T02:50:38;-10.35;78.02
73509;SHT30;72120;54.964;73.444;2023-11-21T02:53:04;-10.39;77.86
73509;SHT30;72120;54.964;73.444;2023-11-21T02:55:31;-10.21;78.29
73509;SHT30;72120;54.964;73.444;2023-11-21T02:58:00;-10.15;78.23
73509;SHT30;72120;54.964;73.444;2023-11-21T03:00:27;-10.31;77.31
73509;SHT30;72120;54.964;73.444;2023-11-21T03:02:54;-10.24;77.65
73509;SHT30;72120;54.964;73.444;2023-11-21T03:05:21;-10.25;77.65
73509;SHT30;72120;54.964;73.444;2023-11-21T03:07:47;-10.29;77.27
73509;SHT30;72120;54.964;73.444;2023-11-21T03:10:13;-10.39;76.75
73509;SHT30;72120;54.964;73.444;2023-11-21T03:12:39;-10.42;77.37
73509;SHT30;72120;54.964;73.444;2023-11-21T03:15:06;-10.26;77.80
73509;SHT30;72120;54.964;73.444;2023-11-21T03:17:33;-10.29;77.67
73509;SHT30;72120;54.964;73.444;2023-11-21T03:20:03;-10.22;78.33
73509;SHT30;72120;54.964;73.444;2023-11-21T03:22:29;-10.08;78.86
73509;SHT30;72120;54.964;73.444;2023-11-21T03:24:55;-10.05;78.61
73509;SHT30;72120;54.964;73.444;2023-11-21T03:27:21;-10.03;79.10
73509;SHT30;72120;54.964;73.444;2023-11-21T03:29:48;-9.95;79.23
73509;SHT30;72120;54.964;73.444;2023-11-21T03:32:16;-9.90;79.26
73509;SHT30;72120;54.964;73.444;2023-11-21T03:34:55;-9.95;78.86
73509;SHT30;72120;54.964;73.444;2023-11-21T03:37:22;-10.03;78.50
73509;SHT30;72120;54.964;73.444;2023-11-21T03:39:48;-9.94;79.00
73509;SHT30;72120;54.964;73.444;2023-11-21T03:42:14;-9.87;79.07
73509;SHT30;72120;54.964;73.444;2023-11-21T03:44:40;-9.94;78.76
73509;SHT30;72120;54.964;73.444;2023-11-21T03:47:07;-9.90;79.31
73509;SHT30;72120;54.964;73.444;2023-11-21T03:49:57;-9.78;79.26
73509;SHT30;72120;54.964;73.444;2023-11-21T03:52:23;-9.87;78.68
73509;SHT30;72120;54.964;73.444;2023-11-21T03:54:49;-9.95;78.06
73509;SHT30;72120;54.964;73.444;2023-11-21T03:57:15;-9.83;78.61
73509;SHT30;72120;54.964;73.444;2023-11-21T03:59:42;-9.81;78.26
73509;SHT30;72120;54.964;73.444;2023-11-21T04:02:08;-9.89;77.31
73509;SHT30;72120;54.964;73.444;2023-11-21T04:04:35;-9.78;78.11
73509;SHT30;72120;54.964;73.444;2023-11-21T04:07:01;-9.74;77.43
73509;SHT30;72120;54.964;73.444;2023-11-21T04:09:28;-9.78;76.81
73509;SHT30;72120;54.964;73.444;2023-11-21T04:11:55;-9.78;76.38
73509;SHT30;72120;54.964;73.444;2023-11-21T04:14:21;-9.78;76.24
73509;SHT30;72120;54.964;73.444;2023-11-21T04:16:47;-9.84;75.66
73509;SHT30;72120;54.964;73.444;2023-11-21T04:19:14;-9.94;75.14
73509;SHT30;72120;54.964;73.444;2023-11-21T04:21:40;-9.94;75.78
73509;SHT30;72120;54.964;73.444;2023-11-21T04:24:09;-9.89;75.46
73509;SHT30;72120;54.964;73.444;2023-11-21T04:26:35;-9.80;75.51
73509;SHT30;72120;54.964;73.444;2023-11-21T04:29:01;-9.75;75.32
73509;SHT30;72120;54.964;73.444;2023-11-21T04:31:30;-9.69;74.96
73509;SHT30;72120;54.964;73.444;2023-11-21T04:34:05;-9.69;74.70
73509;SHT30;72120;54.964;73.444;2023-11-21T04:36:35;-9.66;74.35
73509;SHT30;72120;54.964;73.444;2023-11-21T04:39:11;-9.38;74.50
73509;SHT30;72120;54.964;73.444;2023-11-21T04:41:38;-9.23;74.12
73509;SHT30;72120;54.964;73.444;2023-11-21T04:44:09;-9.12;73.75
73509;SHT30;72120;54.964;73.444;2023-11-21T04:46:39;-9.18;72.98
73509;SHT30;72120;54.964;73.444;2023-11-21T04:49:05;-9.16;72.86
73509;SHT30;72120;54.964;73.444;2023-11-21T04:51:31;-9.15;72.61
73509;SHT30;72120;54.964;73.444;2023-11-21T04:53:58;-9.01;73.10
73509;SHT30;72120;54.964;73.444;2023-11-21T04:56:24;-8.99;72.35
73509;SHT30;72120;54.964;73.444;2023-11-21T04:58:50;-8.74;72.48
73509;SHT30;72120;54.964;73.444;2023-11-21T05:01:16;-8.88;70.98
73509;SHT30;72120;54.964;73.444;2023-11-21T05:03:42;-8.87;71.79
73509;SHT30;72120;54.964;73.444;2023-11-21T05:06:11;-9.14;71.43
73509;SHT30;72120;54.964;73.444;2023-11-21T05:08:37;-9.19;71.71
73509;SHT30;72120;54.964;73.444;2023-11-21T05:11:06;-9.06;71.98
73509;SHT30;72120;54.964;73.444;2023-11-21T05:13:37;-9.04;71.45
73509;SHT30;72120;54.964;73.444;2023-11-21T05:16:04;-8.80;72.85
73509;SHT30;72120;54.964;73.444;2023-11-21T05:18:33;-8.89;71.83
73509;SHT30;72120;54.964;73.444;2023-11-21T05:21:00;-8.92;71.37
73509;SHT30;72120;54.964;73.444;2023-11-21T05:23:30;-9.12;71.08
73509;SHT30;72120;54.964;73.444;2023-11-21T05:25:56;-9.16;71.70
73509;SHT30;72120;54.964;73.444;2023-11-21T05:28:22;-9.20;72.01
73509;SHT30;72120;54.964;73.444;2023-11-21T05:30:48;-9.11;72.24
73509;SHT30;72120;54.964;73.444;2023-11-21T05:33:16;-8.98;72.16
73509;SHT30;72120;54.964;73.444;2023-11-21T05:35:44;-9.06;71.66
73509;SHT30;72120;54.964;73.444;2023-11-21T05:38:10;-9.25;71.15
73509;SHT30;72120;54.964;73.444;2023-11-21T05:40:37;-9.22;72.08
73509;SHT30;72120;54.964;73.444;2023-11-21T05:43:03;-9.15;72.19
73509;SHT30;72120;54.964;73.444;2023-11-21T05:45:31;-9.20;71.73
73509;SHT30;72120;54.964;73.444;2023-11-21T05:47:58;-9.05;72.42
73509;SHT30;72120;54.964;73.444;2023-11-21T05:50:24;-9.16;71.87
73509;SHT30;72120;54.964;73.444;2023-11-21T05:52:50;-9.14;71.80
73509;SHT30;72120;54.964;73.444;2023-11-21T05:55:16;-9.04;71.70
73509;SHT30;72120;54.964;73.444;2023-11-21T05:57:43;-9.06;71.31
73509;SHT30;72120;54.964;73.444;2023-11-21T06:00:10;-8.95;71.24
73509;SHT30;72120;54.964;73.444;2023-11-21T06:02:54;-9.06;71.34
73509;SHT30;72120;54.964;73.444;2023-11-21T06:05:24;-8.96;71.90
73509;SHT30;72120;54.964;73.444;2023-11-21T06:07:51;-9.12;71.62
73509;SHT30;72120;54.964;73.444;2023-11-21T06:10:19;-8.92;72.20
73509;SHT30;72120;54.964;73.444;2023-11-21T06:12:45;-8.74;72.46
73509;SHT30;72120;54.964;73.444;2023-11-21T06:15:12;-8.87;71.47
73509;SHT30;72120;54.964;73.444;2023-11-21T06:17:41;-8.74;72.09
73509;SHT30;72120;54.964;73.444;2023-11-21T06:20:08;-8.67;71.65
73509;SHT30;72120;54.964;73.444;2023-11-21T06:22:40;-8.58;72.02
73509;SHT30;72120;54.964;73.444;2023-11-21T06:25:07;-8.42;72.03
73509;SHT30;72120;54.964;73.444;2023-11-21T06:27:34;-8.40;71.69
73509;SHT30;72120;54.964;73.444;2023-11-21T06:30:04;-8.36;71.64
73509;SHT30;72120;54.964;73.444;2023-11-21T06:32:32;-8.17;72.09
73509;SHT30;72120;54.964;73.444;2023-11-21T06:34:58;-8.14;70.99
73509;SHT30;72120;54.964;73.444;2023-11-21T06:37:29;-7.99;70.92
73509;SHT30;72120;54.964;73.444;2023-11-21T06:39:55;-7.59;70.96
73509;SHT30;72120;54.964;73.444;2023-11-21T06:42:22;-7.25;70.46
73509;SHT30;72120;54.964;73.444;2023-11-21T06:44:50;-7.18;69.77
73509;SHT30;72120;54.964;73.444;2023-11-21T06:47:22;-7.05;69.46
73509;SHT30;72120;54.964;73.444;2023-11-21T06:49:49;-6.90;69.23
73509;SHT30;72120;54.964;73.444;2023-11-21T06:52:15;-6.91;69.44
73509;SHT30;72120;54.964;73.444;2023-11-21T06:54:41;-6.81;69.88
73509;SHT30;72120;54.964;73.444;2023-11-21T06:57:07;-6.97;69.76
73509;SHT30;72120;54.964;73.444;2023-11-21T06:59:34;-6.83;70.50
73509;SHT30;72120;54.964;73.444;2023-11-21T07:02:00;-6.76;70.52
73509;SHT30;72120;54.964;73.444;2023-11-21T07:04:26;-7.00;70.64
73509;SHT30;72120;54.964;73.444;2023-11-21T07:06:53;-7.11;71.10
73509;SHT30;72120;54.964;73.444;2023-11-21T07:09:19;-6.97;71.77
73509;SHT30;72120;54.964;73.444;2023-11-21T07:11:48;-7.10;70.97
73509;SHT30;72120;54.964;73.444;2023-11-21T07:14:16;-7.10;71.48
73509;SHT30;72120;54.964;73.444;2023-11-21T07:16:46;-6.97;72.22
73509;SHT30;72120;54.964;73.444;2023-11-21T07:19:12;-6.97;72.00
73509;SHT30;72120;54.964;73.444;2023-11-21T07:21:38;-6.73;72.77
73509;SHT30;72120;54.964;73.444;2023-11-21T07:24:07;-6.66;72.20
73509;SHT30;72120;54.964;73.444;2023-11-21T07:26:42;-6.93;71.05
73509;SHT30;72120;54.964;73.444;2023-11-21T07:29:08;-6.81;72.41
73509;SHT30;72120;54.964;73.444;2023-11-21T07:31:34;-6.87;71.82
73509;SHT30;72120;54.964;73.444;2023-11-21T07:34:00;-6.96;71.90
73509;SHT30;72120;54.964;73.444;2023-11-21T07:36:26;-6.89;72.82
73509;SHT30;72120;54.964;73.444;2023-11-21T07:38:53;-7.03;72.32
73509;SHT30;72120;54.964;73.444;2023-11-21T07:41:19;-6.94;73.20
73509;SHT30;72120;54.964;73.444;2023-11-21T07:43:46;-6.90;73.13
73509;SHT30;72120;54.964;73.444;2023-11-21T07:46:12;-6.73;73.26
73509;SHT30;72120;54.964;73.444;2023-11-21T07:48:39;-6.65;72.73
73509;SHT30;72120;54.964;73.444;2023-11-21T07:51:05;-6.65;72.20
73509;SHT30;72120;54.964;73.444;2023-11-21T07:53:32;-6.66;72.27
73509;SHT30;72120;54.964;73.444;2023-11-21T07:56:07;-6.57;72.47
73509;SHT30;72120;54.964;73.444;2023-11-21T07:58:34;-6.65;71.86
73509;SHT30;72120;54.964;73.444;2023-11-21T08:01:01;-6.83;72.12
73509;SHT30;72120;54.964;73.444;2023-11-21T08:03:33;-6.91;72.22
73509;SHT30;72120;54.964;73.444;2023-11-21T08:06:01;-6.81;73.18
73509;SHT30;72120;54.964;73.444;2023-11-21T08:08:29;-6.80;72.88
73509;SHT30;72120;54.964;73.444;2023-11-21T08:10:55;-7.03;72.32
73509;SHT30;72120;54.964;73.444;2023-11-21T08:13:31;-6.99;73.17
73509;SHT30;72120;54.964;73.444;2023-11-21T08:16:04;-6.94;73.36
73509;SHT30;72120;54.964;73.444;2023-11-21T08:18:31;-6.94;73.40
73509;SHT30;72120;54.964;73.444;2023-11-21T08:21:08;-6.83;73.42
73509;SHT30;72120;54.964;73.444;2023-11-21T08:23:41;-6.73;73.57
73509;SHT30;72120;54.964;73.444;2023-11-21T08:26:08;-6.87;72.84
73509;SHT30;72120;54.964;73.444;2023-11-21T08:28:34;-6.80;73.58
73509;SHT30;72120;54.964;73.444;2023-11-21T08:31:04;-6.83;72.91
73509;SHT30;72120;54.964;73.444;2023-11-21T08:33:30;-6.80;72.88
73509;SHT30;72120;54.964;73.444;2023-11-21T08:35:56;-6.77;73.48
73509;SHT30;72120;54.964;73.444;2023-11-21T08:38:22;-6.84;72.88
73509;SHT30;72120;54.964;73.444;2023-11-21T08:40:48;-6.73;73.88
73509;SHT30;72120;54.964;73.444;2023-11-21T08:43:14;-6.79;73.29
73509;SHT30;72120;54.964;73.444;2023-11-21T08:45:42;-6.73;73.19
73509;SHT30;72120;54.964;73.444;2023-11-21T08:48:07;-6.56;73.61
73509;SHT30;72120;54.964;73.444;2023-11-21T08:50:34;-6.49;73.19
73509;SHT30;72120;54.964;73.444;2023-11-21T08:53:00;-6.46;73.18
73509;SHT30;72120;54.964;73.444;2023-11-21T08:55:29;-6.54;72.95
73509;SHT30;72120;54.964;73.444;2023-11-21T08:57:55;-6.43;73.58
73509;SHT30;72120;54.964;73.444;2023-11-21T09:00:21;-6.50;72.90
73509;SHT30;72120;54.964;73.444;2023-11-21T09:02:47;-6.50;73.60
73509;SHT30;72120;54.964;73.444;2023-11-21T09:05:16;-6.56;73.83
73509;SHT30;72120;54.964;73.444;2023-11-21T09:07:45;-6.56;74.06
73509;SHT30;72120;54.964;73.444;2023-11-21T09:10:12;-6.59;73.76
73509;SHT30;72120;54.964;73.444;2023-11-21T09:12:38;-6.45;74.20
73509;SHT30;72120;54.964;73.444;2023-11-21T09:15:05;-6.49;73.50
73509;SHT30;72120;54.964;73.444;2023-11-21T09:17:34;-6.37;73.57
73509;SHT30;72120;54.964;73.444;2023-11-21T09:20:01;-6.57;73.01
73509;SHT30;72120;54.964;73.444;2023-11-21T09:22:29;-6.72;73.90
73509;SHT30;72120;54.964;73.444;2023-11-21T09:24:55;-6.87;73.89
73509;SHT30;72120;54.964;73.444;2023-11-21T09:27:31;-6.93;74.99
73509;SHT30;72120;54.964;73.444;2023-11-21T09:29:57;-6.87;75.15
73509;SHT30;72120;54.964;73.444;2023-11-21T09:32:27;-6.99;74.92
73509;SHT30;72120;54.964;73.444;2023-11-21T09:34:53;-7.05;75.16
73509;SHT30;72120;54.964;73.444;2023-11-21T09:37:21;-7.05;75.42
73509;SHT30;72120;54.964;73.444;2023-11-21T09:39:47;-7.05;75.81
73509;SHT30;72120;54.964;73.444;2023-11-21T09:42:30;-7.03;76.29
73509;SHT30;72120;54.964;73.444;2023-11-21T09:47:35;-7.07;75.93
73509;SHT30;72120;54.964;73.444;2023-11-21T09:50:22;-7.05;76.65
73509;SHT30;72120;54.964;73.444;2023-11-21T09:52:57;-7.12;76.41
73509;SHT30;72120;54.964;73.444;2023-11-21T09:55:24;-7.27;76.35
73509;SHT30;72120;54.964;73.444;2023-11-21T09:57:56;-7.34;76.82
73509;SHT30;72120;54.964;73.444;2023-11-21T10:00:22;-7.31;77.14
73509;SHT30;72120;54.964;73.444;2023-11-21T10:02:49;-7.21;77.67
73509;SHT30;72120;54.964;73.444;2023-11-21T10:05:18;-7.17;77.71
73509;SHT30;72120;54.964;73.444;2023-11-21T10:07:45;-7.31;76.91
73509;SHT30;72120;54.964;73.444;2023-11-21T10:10:32;-7.28;77.22
73509;SHT30;72120;54.964;73.444;2023-11-21T10:12:58;-7.31;77.19
73509;SHT30;72120;54.964;73.444;2023-11-21T10:15:27;-7.24;77.66
73509;SHT30;72120;54.964;73.444;2023-11-21T10:17:53;-7.25;77.47
73509;SHT30;72120;54.964;73.444;2023-11-21T10:20:20;-7.18;78.19
73509;SHT30;72120;54.964;73.444;2023-11-21T10:22:48;-7.21;77.78
73509;SHT30;72120;54.964;73.444;2023-11-21T10:25:14;-7.27;77.93
73509;SHT30;72120;54.964;73.444;2023-11-21T10:27:41;-7.21;78.10
73509;SHT30;72120;54.964;73.444;2023-11-21T10:30:10;-7.22;78.10
73509;SHT30;72120;54.964;73.444;2023-11-21T10:32:40;-7.12;78.74
73509;SHT30;72120;54.964;73.444;2023-11-21T10:35:07;-7.12;78.57
73509;SHT30;72120;54.964;73.444;2023-11-21T10:37:36;-7.15;78.71
73509;SHT30;72120;54.964;73.444;2023-11-21T10:40:11;-7.11;78.81
73509;SHT30;72120;54.964;73.444;2023-11-21T10:42:49;-7.14;78.85
73509;SHT30;72120;54.964;73.444;2023-11-21T10:45:19;-7.17;78.98
73509;SHT30;72120;54.964;73.444;2023-11-21T10:47:45;-7.07;79.45
73509;SHT30;72120;54.964;73.444;2023-11-21T10:50:13;-7.12;79.30
73509;SHT30;72120;54.964;73.444;2023-11-21T10:52:45;-7.15;79.20
73509;SHT30;72120;54.964;73.444;2023-11-21T10:55:17;-7.15;79.58
73509;SHT30;72120;54.964;73.444;2023-11-21T10:57:53;-7.12;79.84
73509;SHT30;72120;54.964;73.444;2023-11-21T11:00:20;-7.01;79.96
73509;SHT30;72120;54.964;73.444;2023-11-21T11:02:51;-6.97;80.21
73509;SHT30;72120;54.964;73.444;2023-11-21T11:05:18;-6.96;79.85
73509;SHT30;72120;54.964;73.444;2023-11-21T11:07:45;-6.89;80.38
73509;SHT30;72120;54.964;73.444;2023-11-21T11:10:14;-6.91;79.84
73509;SHT30;72120;54.964;73.444;2023-11-21T11:12:40;-6.84;79.96
73509;SHT30;72120;54.964;73.444;2023-11-21T11:15:07;-6.80;80.16
73509;SHT30;72120;54.964;73.444;2023-11-21T11:17:37;-6.79;80.12
73509;SHT30;72120;54.964;73.444;2023-11-21T11:20:08;-6.84;79.74
73509;SHT30;72120;54.964;73.444;2023-11-21T11:22:41;-6.81;79.97
73509;SHT30;72120;54.964;73.444;2023-11-21T11:27:52;-6.75;80.41
73509;SHT30;72120;54.964;73.444;2023-11-21T11:35:33;-6.56;80.77
73509;SHT30;72120;54.964;73.444;2023-11-21T11:38:00;-6.52;80.53
73509;SHT30;72120;54.964;73.444;2023-11-21T11:40:38;-6.50;80.29
73509;SHT30;72120;54.964;73.444;2023-11-21T11:43:05;-6.50;80.00
73509;SHT30;72120;54.964;73.444;2023-11-21T11:45:33;-6.43;80.51
73509;SHT30;72120;54.964;73.444;2023-11-21T11:48:00;-6.43;80.25
73509;SHT30;72120;54.964;73.444;2023-11-21T11:50:26;-6.45;80.02
73509;SHT30;72120;54.964;73.444;2023-11-21T11:52:52;-6.49;80.03
73509;SHT30;72120;54.964;73.444;2023-11-21T11:55:21;-6.45;80.35
73509;SHT30;72120;54.964;73.444;2023-11-21T11:57:48;-6.40;80.52
73509;SHT30;72120;54.964;73.444;2023-11-21T12:00:19;-6.45;80.08
73509;SHT30;72120;54.964;73.444;2023-11-21T12:02:47;-6.49;80.25
73509;SHT30;72120;54.964;73.444;2023-11-21T12:05:17;-6.46;80.37
73509;SHT30;72120;54.964;73.444;2023-11-21T12:08:03;-6.52;80.09
73509;SHT30;72120;54.964;73.444;2023-11-21T12:10:29;-6.43;80.67
73509;SHT30;72120;54.964;73.444;2023-11-21T12:13:14;-6.36;80.59
73509;SHT30;72120;54.964;73.444;2023-11-21T12:15:53;-6.42;79.92
73509;SHT30;72120;54.964;73.444;2023-11-21T12:18:20;-6.39;80.06
73509;SHT30;72120;54.964;73.444;2023-11-21T12:21:02;-6.47;79.74
73509;SHT30;72120;54.964;73.444;2023-11-21T12:23:28;-6.40;80.26
73509;SHT30;72120;54.964;73.444;2023-11-21T12:26:03;-6.37;80.27
73509;SHT30;72120;54.964;73.444;2023-11-21T12:28:29;-6.30;80.20
73509;SHT30;72120;54.964;73.444;2023-11-21T12:30:55;-6.28;79.95
73509;SHT30;72120;54.964;73.444;2023-11-21T12:33:22;-6.30;79.78
73509;SHT30;72120;54.964;73.444;2023-11-21T12:35:48;-6.25;79.99
73509;SHT30;72120;54.964;73.444;2023-11-21T12:38:14;-6.33;79.48
73509;SHT30;72120;54.964;73.444;2023-11-21T12:40:43;-6.25;79.75
73509;SHT30;72120;54.964;73.444;2023-11-21T12:43:27;-6.23;79.69
73509;SHT30;72120;54.964;73.444;2023-11-21T12:46:07;-6.22;79.71
73509;SHT30;72120;54.964;73.444;2023-11-21T12:48:43;-6.25;79.54
73509;SHT30;72120;54.964;73.444;2023-11-21T12:51:09;-6.18;79.97
73509;SHT30;72120;54.964;73.444;2023-11-21T12:53:40;-6.22;79.27
73509;SHT30;72120;54.964;73.444;2023-11-21T12:56:18;-6.25;79.56
73509;SHT30;72120;54.964;73.444;2023-11-21T12:58:58;-6.22;79.80
73509;SHT30;72120;54.964;73.444;2023-11-21T13:01:25;-6.30;79.40
73509;SHT30;72120;54.964;73.444;2023-11-21T13:03:54;-6.29;79.47
73509;SHT30;72120;54.964;73.444;2023-11-21T13:06:20;-6.32;79.43
73509;SHT30;72120;54.964;73.444;2023-11-21T13:08:50;-6.39;79.26
73509;SHT30;72120;54.964;73.444;2023-11-21T13:11:22;-6.39;79.67
73509;SHT30;72120;54.964;73.444;2023-11-21T13:14:12;-6.40;79.54
73509;SHT30;72120;54.964;73.444;2023-11-21T13:17:00;-6.37;79.92
73509;SHT30;72120;54.964;73.444;2023-11-21T13:20:11;-6.30;79.82
73509;SHT30;72120;54.964;73.444;2023-11-21T13:22:56;-6.29;79.63
73509;SHT30;72120;54.964;73.444;2023-11-21T13:25:27;-6.26;79.64
73509;SHT30;72120;54.964;73.444;2023-11-21T13:27:56;-6.28;79.66
73509;SHT30;72120;54.964;73.444;2023-11-21T13:30:23;-6.23;79.53
73509;SHT30;72120;54.964;73.444;2023-11-21T13:32:53;-6.28;79.63
73509;SHT30;72120;54.964;73.444;2023-11-21T13:35:25;-6.23;79.82
73509;SHT30;72120;54.964;73.444;2023-11-21T13:38:19;-6.25;79.84
73509;SHT30;72120;54.964;73.444;2023-11-21T13:40:50;-6.23;79.63
73509;SHT30;72120;54.964;73.444;2023-11-21T13:43:38;-6.30;79.63
73509;SHT30;72120;54.964;73.444;2023-11-21T13:46:04;-6.29;79.71
73509;SHT30;72120;54.964;73.444;2023-11-21T13:48:38;-6.36;79.67
73509;SHT30;72120;54.964;73.444;2023-11-21T13:51:08;-6.33;79.89
73509;SHT30;72120;54.964;73.444;2023-11-21T13:53:45;-6.23;80.15
73509;SHT30;72120;54.964;73.444;2023-11-21T13:56:14;-6.23;79.70
73509;SHT30;72120;54.964;73.444;2023-11-21T13:58:49;-6.26;79.85
73509;SHT30;72120;54.964;73.444;2023-11-21T14:01:26;-6.21;79.77
73509;SHT30;72120;54.964;73.444;2023-11-21T14:04:18;-6.23;79.71
73509;SHT30;72120;54.964;73.444;2023-11-21T14:06:45;-6.23;79.61
73509;SHT30;72120;54.964;73.444;2023-11-21T14:09:14;-6.25;79.54
73509;SHT30;72120;54.964;73.444;2023-11-21T14:11:51;-6.30;79.58
73509;SHT30;72120;54.964;73.444;2023-11-21T14:14:18;-6.30;79.64
73509;SHT30;72120;54.964;73.444;2023-11-21T14:16:44;-6.28;79.77
73509;SHT30;72120;54.964;73.444;2023-11-21T14:19:10;-6.21;79.85
73509;SHT30;72120;54.964;73.444;2023-11-21T14:21:45;-6.23;79.67
73509;SHT30;72120;54.964;73.444;2023-11-21T14:24:12;-6.22;79.66
73509;SHT30;72120;54.964;73.444;2023-11-21T14:26:40;-6.21;79.66
73509;SHT30;72120;54.964;73.444;2023-11-21T14:29:06;-6.16;79.69
73509;SHT30;72120;54.964;73.444;2023-11-21T14:31:34;-6.15;79.56
73509;SHT30;72120;54.964;73.444;2023-11-21T14:34:00;-6.11;79.39
73509;SHT30;72120;54.964;73.444;2023-11-21T14:36:41;-6.09;79.50
73509;SHT30;72120;54.964;73.444;2023-11-21T14:39:08;-6.06;79.55
73509;SHT30;72120;54.964;73.444;2023-11-21T14:41:49;-6.06;79.25
73509;SHT30;72120;54.964;73.444;2023-11-21T14:44:15;-5.99;79.91
73509;SHT30;72120;54.964;73.444;2023-11-21T14:46:41;-6.11;79.29
73509;SHT30;72120;54.964;73.444;2023-11-21T14:49:12;-6.16;79.46
73509;SHT30;72120;54.964;73.444;2023-11-21T14:51:52;-6.19;79.82
73509;SHT30;72120;54.964;73.444;2023-11-21T14:54:43;-6.15;79.91
73509;SHT30;72120;54.964;73.444;2023-11-21T14:57:13;-6.15;80.03
73509;SHT30;72120;54.964;73.444;2023-11-21T14:59:44;-6.09;80.29
73509;SHT30;72120;54.964;73.444;2023-11-21T15:02:17;-6.09;79.89
73509;SHT30;72120;54.964;73.444;2023-11-21T15:04:48;-6.13;79.97
73509;SHT30;72120;54.964;73.444;2023-11-21T15:07:18;-6.06;80.29
73509;SHT30;72120;54.964;73.444;2023-11-21T15:09:44;-6.05;79.89
73509;SHT30;72120;54.964;73.444;2023-11-21T15:12:19;-6.09;79.75
73509;SHT30;72120;54.964;73.444;2023-11-21T15:14:48;-6.01;80.22
73509;SHT30;72120;54.964;73.444;2023-11-21T15:17:15;-6.02;79.71
73509;SHT30;72120;54.964;73.444;2023-11-21T15:19:51;-6.08;79.76
73509;SHT30;72120;54.964;73.444;2023-11-21T15:22:18;-6.06;79.75
73509;SHT30;72120;54.964;73.444;2023-11-21T15:24:54;-5.99;79.75
73509;SHT30;72120;54.964;73.444;2023-11-21T15:27:20;-6.02;79.54
73509;SHT30;72120;54.964;73.444;2023-11-21T15:29:46;-6.12;79.35
73509;SHT30;72120;54.964;73.444;2023-11-21T15:32:12;-6.16;79.38
73509;SHT30;72120;54.964;73.444;2023-11-21T15:34:39;-6.19;79.76
73509;SHT30;72120;54.964;73.444;2023-11-21T15:37:05;-6.18;79.90